Terminal Aerodrome Forecast
Issued by NWS

Current Version | Previous Version | Graphics & Text | Print | Product List | Glossary On
Versions: 1 2 3 4 5 6 7 8 9 10 11 12 13 14 15 16 17 18 19 20 21 22 23 24 25 26 27 28 29
383
FTUS41 KPBZ 290145 AAC
TAFHLG
TAF AMD
KHLG 290145Z 2902/2924 VRB05KT P6SM -SHRA VCTS OVC050CB
      TEMPO 2902/2904 VRB15G25KT 3SM TSRA
     FM290500 VRB05KT P6SM VCSH OVC050
     FM290800 24010KT 5SM -SHRA VCTS OVC035CB
     FM291200 25010KT P6SM -SHRA OVC020
     FM291800 25008KT P6SM VCSH BKN035=

USA.gov is the U.S. government's official web portal to all federal, state and local government web resources and services.